Time;durP1;ratioP1;P1;durP2;ratioP2;P2;SDS_P1;SDS_P2;PMS_P1;PMS_P2;Temp;Humidity;BMP_temperature;BMP_pressure;BME280_temperature;BME280_humidity;BME280_pressure;Samples;Min_cycle;Max_cycle;Signal;HPM_P1;HPM_P2
2023/03/14 00:02:08;;;;;;;6.03;3.65;;;21.50;56.20;;;;;;5094726;28;20463;-73
2023/03/14 00:04:34;;;;;;;6.70;3.92;;;21.50;55.90;;;;;;5094548;28;20072;-73
2023/03/14 00:07:00;;;;;;;5.88;3.45;;;21.60;55.60;;;;;;5094701;28;20036;-73
2023/03/14 00:09:26;;;;;;;6.50;3.90;;;21.50;55.90;;;;;;5094363;28;20032;-73
2023/03/14 00:11:55;;;;;;;5.20;3.70;;;21.50;55.80;;;;;;5074921;28;20143;-73
2023/03/14 00:14:21;;;;;;;4.32;3.28;;;21.50;55.50;;;;;;5094253;28;20387;-74
2023/03/14 00:16:47;;;;;;;4.97;3.30;;;21.50;55.80;;;;;;5094372;28;20040;-73
2023/03/14 00:19:13;;;;;;;7.70;3.50;;;21.70;55.50;;;;;;5094443;28;20111;-73
2023/03/14 00:21:39;;;;;;;5.53;3.05;;;21.70;55.30;;;;;;5094525;28;20464;-73
2023/03/14 00:24:06;;;;;;;5.50;3.22;;;21.60;55.30;;;;;;5092928;28;20131;-73
2023/03/14 00:26:32;;;;;;;4.70;3.22;;;21.60;55.30;;;;;;5093170;28;20368;-73
2023/03/14 00:28:59;;;;;;;5.32;3.40;;;21.50;55.20;;;;;;5092878;28;20392;-73
2023/03/14 00:31:25;;;;;;;3.80;3.03;;;21.50;55.60;;;;;;5091034;28;20024;-73
2023/03/14 00:33:53;;;;;;;5.30;3.50;;;21.50;55.50;;;;;;5092637;28;20153;-73
2023/03/14 00:36:20;;;;;;;7.32;4.00;;;21.50;55.50;;;;;;5094055;28;20036;-73
2023/03/14 00:38:48;;;;;;;4.55;3.05;;;21.30;45.80;;;;;;5090015;28;20036;-73
2023/03/14 00:41:17;;;;;;;5.43;3.38;;;21.20;55.90;;;;;;5056062;28;20043;-73
2023/03/14 00:43:44;;;;;;;6.13;3.80;;;21.20;55.70;;;;;;5073733;28;20047;-74
2023/03/14 00:46:13;;;;;;;6.32;4.10;;;21.20;55.40;;;;;;5073954;28;20021;-74
2023/03/14 00:48:39;;;;;;;4.72;3.17;;;21.20;55.40;;;;;;5073610;28;20036;-74
2023/03/14 00:51:07;;;;;;;5.97;3.75;;;21.30;55.50;;;;;;5073252;28;20040;-74
2023/03/14 00:53:37;;;;;;;4.40;3.20;;;21.30;55.50;;;;;;5072362;28;20120;-73
2023/03/14 00:56:05;;;;;;;3.53;2.83;;;21.30;55.20;;;;;;5073585;28;20039;-73
2023/03/14 00:58:31;;;;;;;5.18;3.63;;;21.20;55.00;;;;;;5073728;28;20160;-73
2023/03/14 01:00:57;;;;;;;4.20;3.40;;;21.20;55.20;;;;;;5073354;28;20541;-73
2023/03/14 01:03:25;;;;;;;3.38;3.00;;;21.20;55.10;;;;;;5071477;28;20024;-74
2023/03/14 01:05:50;;;;;;;5.30;3.40;;;21.30;55.10;;;;;;5073194;28;20514;-73
2023/03/14 01:08:16;;;;;;;4.28;3.30;;;21.20;54.60;;;;;;5073363;28;20029;-73
2023/03/14 01:10:43;;;;;;;6.50;3.13;;;21.10;54.40;;;;;;5062898;28;20052;-73
2023/03/14 01:13:09;;;;;;;6.15;3.60;;;21.20;55.00;;;;;;5035435;28;20104;-73
2023/03/14 01:15:37;;;;;;;5.30;3.35;;;21.30;53.50;;;;;;5053048;28;20029;-73
2023/03/14 01:18:03;;;;;;;6.18;3.25;;;21.20;54.70;;;;;;5053023;28;20047;-73
2023/03/14 01:20:29;;;;;;;4.18;2.40;;;21.30;54.40;;;;;;5035105;28;20128;-74
2023/03/14 01:22:55;;;;;;;3.75;2.90;;;21.10;54.90;;;;;;5053184;28;20094;-73
2023/03/14 01:25:22;;;;;;;3.92;3.35;;;21.20;54.80;;;;;;5053034;28;20025;-73
2023/03/14 01:27:48;;;;;;;5.07;3.35;;;21.10;53.90;;;;;;5034955;28;20475;-73
2023/03/14 01:30:14;;;;;;;5.35;3.38;;;21.10;54.60;;;;;;5018425;28;20048;-73
2023/03/14 01:32:40;;;;;;;5.35;3.22;;;21.10;53.60;;;;;;4990852;28;20097;-72
2023/03/14 01:35:07;;;;;;;7.05;3.22;;;21.00;54.90;;;;;;4974611;28;20053;-73
2023/03/14 01:37:33;;;;;;;4.00;3.00;;;21.10;54.10;;;;;;4942678;28;20478;-74
2023/03/14 01:39:59;;;;;;;3.80;3.40;;;20.90;54.50;;;;;;4991063;28;20046;-74
2023/03/14 01:42:26;;;;;;;4.50;3.40;;;21.10;52.90;;;;;;4958420;28;20062;-73
2023/03/14 01:44:57;;;;;;;4.75;3.20;;;21.10;54.50;;;;;;4990839;28;20169;-74
2023/03/14 01:47:24;;;;;;;3.92;3.08;;;21.10;54.50;;;;;;4974397;28;20092;-73
2023/03/14 01:50:01;;;;;;;3.03;2.40;;;21.10;53.10;;;;;;4974601;28;20185;-74
2023/03/14 01:52:41;;;;;;;5.10;3.10;;;21.20;52.90;;;;;;4974414;28;20398;-73
2023/03/14 01:55:14;;;;;;;7.40;3.28;;;21.10;53.90;;;;;;4974428;28;20121;-73
2023/03/14 01:57:44;;;;;;;5.35;3.00;;;21.10;54.10;;;;;;4974319;28;20430;-73
2023/03/14 02:00:19;;;;;;;4.10;3.10;;;21.20;53.10;;;;;;4974630;28;20125;-73
2023/03/14 02:02:51;;;;;;;6.10;3.47;;;21.30;53.90;;;;;;4982724;28;20062;-73
2023/03/14 02:05:24;;;;;;;5.53;3.47;;;21.20;53.60;;;;;;5034355;28;20041;-74
2023/03/14 02:07:57;;;;;;;5.70;3.60;;;21.10;53.70;;;;;;5034128;28;20492;-73
2023/03/14 02:10:34;;;;;;;5.03;3.45;;;21.20;54.20;;;;;;5046904;28;20428;-73
2023/03/14 02:13:04;;;;;;;4.65;3.40;;;20.90;54.30;;;;;;5070906;28;20052;-73
2023/03/14 02:15:48;;;;;;;4.40;3.20;;;21.00;54.70;;;;;;5071012;28;20039;-73
2023/03/14 02:18:32;;;;;;;5.88;3.38;;;21.10;54.80;;;;;;5069243;28;20044;-73
2023/03/14 02:21:46;;;;;;;6.20;3.60;;;21.00;54.60;;;;;;5052644;28;20059;-73
2023/03/14 02:24:22;;;;;;;5.40;3.65;;;20.90;54.60;;;;;;5019168;28;20052;-73
2023/03/14 02:27:15;;;;;;;4.60;3.13;;;20.90;54.70;;;;;;5052352;28;20025;-74
2023/03/14 02:29:54;;;;;;;6.22;3.45;;;20.80;54.70;;;;;;5052502;28;20033;-73
2023/03/14 02:32:23;;;;;;;4.53;3.05;;;20.90;54.50;;;;;;5059836;28;20041;-73
2023/03/14 02:34:55;;;;;;;4.20;2.92;;;20.80;54.40;;;;;;5032179;28;20083;-73
2023/03/14 02:37:26;;;;;;;5.65;3.92;;;20.90;54.10;;;;;;5015489;28;20053;-74
2023/03/14 02:39:53;;;;;;;4.60;3.42;;;20.90;52.40;;;;;;5032256;28;20037;-73
2023/03/14 02:42:20;;;;;;;3.92;3.00;;;20.90;52.30;;;;;;5015896;28;20074;-73
2023/03/14 02:44:52;;;;;;;5.32;3.40;;;21.00;54.20;;;;;;5032217;28;20543;-73
2023/03/14 02:47:22;;;;;;;;;;;20.90;54.00;;;;;;5033568;28;20041;-73
2023/03/14 02:49:48;;;;;;;4.15;3.42;;;20.90;53.90;;;;;;5062261;28;19978;-73
2023/03/14 02:52:14;;;;;;;7.38;3.00;;;20.80;53.80;;;;;;5088958;28;20044;-73
2023/03/14 02:54:40;;;;;;;4.25;2.95;;;20.90;53.90;;;;;;5055218;28;20511;-73
2023/03/14 02:57:06;;;;;;;5.22;2.97;;;20.90;54.00;;;;;;5072176;28;20039;-74
2023/03/14 02:59:33;;;;;;;4.00;3.15;;;20.90;54.10;;;;;;5072108;28;20495;-73
2023/03/14 03:02:06;;;;;;;;;;;20.80;54.00;;;;;;5072676;28;20040;-73
2023/03/14 03:04:32;;;;;;;4.80;3.25;;;20.90;50.00;;;;;;5071774;28;20368;-73
2023/03/14 03:06:58;;;;;;;3.95;3.33;;;20.70;53.60;;;;;;5089453;28;20051;-73
2023/03/14 03:09:24;;;;;;;6.60;3.28;;;20.80;51.90;;;;;;5056556;28;20078;-74
2023/03/14 03:11:51;;;;;;;8.70;3.85;;;20.70;53.60;;;;;;5089941;28;20040;-73
2023/03/14 03:14:21;;;;;;;4.00;3.33;;;20.80;52.10;;;;;;5089767;28;20028;-73
2023/03/14 03:16:47;;;;;;;4.68;3.33;;;20.80;53.70;;;;;;5089839;28;20427;-73
2023/03/14 03:19:14;;;;;;;3.05;1.92;;;20.70;52.40;;;;;;5090097;28;20110;-73
2023/03/14 03:21:40;;;;;;;11.32;3.20;;;20.90;52.50;;;;;;5090234;28;20032;-73
2023/03/14 03:24:06;;;;;;;3.95;2.95;;;20.80;52.40;;;;;;5088313;28;20496;-73
2023/03/14 03:26:35;;;;;;;7.18;3.30;;;20.90;51.60;;;;;;5089556;28;20432;-73
2023/03/14 03:29:04;;;;;;;3.53;3.03;;;20.80;53.30;;;;;;5092934;28;20086;-73
2023/03/14 03:31:30;;;;;;;8.05;3.08;;;20.90;52.60;;;;;;5076053;28;20047;-73
2023/03/14 03:33:57;;;;;;;7.20;3.47;;;20.90;51.90;;;;;;5092808;28;20425;-73
2023/03/14 03:36:25;;;;;;;6.45;3.33;;;20.90;50.70;;;;;;5075676;28;20588;-73
2023/03/14 03:38:51;;;;;;;4.85;3.42;;;20.80;53.10;;;;;;5092788;28;20040;-73
2023/03/14 03:41:17;;;;;;;4.90;3.55;;;20.80;53.10;;;;;;5075743;28;20086;-73
2023/03/14 03:43:43;;;;;;;8.77;3.13;;;20.90;53.40;;;;;;5075858;28;20032;-73
2023/03/14 03:46:12;;;;;;;4.75;3.38;;;20.90;53.40;;;;;;5075373;28;20040;-73
2023/03/14 03:48:38;;;;;;;5.75;3.55;;;20.80;53.10;;;;;;5092539;28;20040;-73
2023/03/14 03:51:06;;;;;;;7.18;3.20;;;20.80;53.30;;;;;;5075556;28;20059;-73
2023/03/14 03:53:33;;;;;;;5.78;3.20;;;20.80;53.50;;;;;;5075584;28;20036;-73
2023/03/14 03:56:00;;;;;;;3.75;2.53;;;20.80;53.40;;;;;;5092300;28;20048;-73
2023/03/14 03:58:26;;;;;;;6.40;3.58;;;21.00;51.70;;;;;;5092145;28;20047;-73
2023/03/14 04:00:52;;;;;;;6.18;3.55;;;20.80;53.30;;;;;;5092620;28;20048;-73
2023/03/14 04:03:18;;;;;;;5.57;4.18;;;20.70;53.00;;;;;;5093631;28;20024;-73
2023/03/14 04:05:44;;;;;;;5.65;3.92;;;20.80;52.20;;;;;;5093490;28;20043;-73
2023/03/14 04:08:10;;;;;;;4.30;3.58;;;20.90;52.70;;;;;;5093463;28;20032;-73
2023/03/14 04:10:37;;;;;;;4.72;2.97;;;20.80;53.00;;;;;;5093301;28;20067;-73
2023/03/14 04:13:07;;;;;;;4.68;3.05;;;20.80;51.40;;;;;;5093163;28;20044;-73
2023/03/14 04:15:35;;;;;;;7.25;3.80;;;20.80;53.00;;;;;;5093131;28;20047;-73
2023/03/14 04:18:07;;;;;;;4.78;3.45;;;20.90;52.30;;;;;;5093337;28;20067;-73
2023/03/14 04:20:35;;;;;;;3.58;2.92;;;21.00;52.70;;;;;;5093324;28;20043;-73
2023/03/14 04:23:01;;;;;;;4.75;3.58;;;21.00;51.80;;;;;;5093076;28;20106;-73
2023/03/14 04:25:27;;;;;;;4.57;3.65;;;21.00;52.40;;;;;;5092924;28;20115;-73
2023/03/14 04:27:56;;;;;;;4.38;3.38;;;21.10;52.70;;;;;;5092858;28;20119;-73
2023/03/14 04:30:26;;;;;;;4.55;3.63;;;21.00;52.80;;;;;;5092826;28;20063;-73
2023/03/14 04:32:55;;;;;;;5.63;3.55;;;21.00;52.50;;;;;;5089645;28;20036;-73
2023/03/14 04:35:24;;;;;;;6.00;3.30;;;21.00;53.10;;;;;;5092629;28;20438;-74
2023/03/14 04:37:53;;;;;;;4.63;3.13;;;21.10;52.50;;;;;;5093524;28;20043;-73
2023/03/14 04:40:21;;;;;;;8.13;3.10;;;21.00;53.00;;;;;;5092359;28;20043;-74
2023/03/14 04:42:49;;;;;;;5.45;3.95;;;21.00;52.60;;;;;;5092719;28;20082;-73
2023/03/14 04:45:15;;;;;;;7.13;3.65;;;21.20;52.60;;;;;;5093724;28;20074;-73
2023/03/14 04:47:42;;;;;;;6.78;3.15;;;21.10;52.60;;;;;;5092736;28;20028;-73
2023/03/14 04:50:12;;;;;;;3.13;1.77;;;21.20;52.70;;;;;;5092384;28;20039;-73
2023/03/14 04:52:38;;;;;;;4.97;3.50;;;21.30;52.70;;;;;;5088633;28;20059;-73
2023/03/14 04:55:05;;;;;;;4.93;3.30;;;21.40;56.20;;;;;;5075155;28;20837;-73
2023/03/14 04:57:31;;;;;;;4.80;2.95;;;21.70;56.80;;;;;;5092219;28;20137;-73
2023/03/14 04:59:58;;;;;;;6.68;3.53;;;22.30;61.50;;;;;;5075789;28;20125;-74
2023/03/14 05:02:44;;;;;;;5.13;3.40;;;22.50;58.10;;;;;;5093222;28;20048;-73
2023/03/14 05:05:19;;;;;;;4.55;3.20;;;22.60;54.80;;;;;;5091685;28;20503;-73
2023/03/14 05:08:00;;;;;;;2.45;1.95;;;22.60;50.30;;;;;;5093713;28;20094;-73
2023/03/14 05:10:41;;;;;;;4.35;2.97;;;22.50;47.70;;;;;;5092025;28;20059;-72
2023/03/14 05:13:25;;;;;;;6.05;3.72;;;22.40;47.30;;;;;;5093252;28;20035;-73
2023/03/14 05:16:10;;;;;;;6.45;3.97;;;22.30;47.20;;;;;;5093445;28;20067;-73
2023/03/14 05:18:45;;;;;;;4.22;3.28;;;22.20;48.00;;;;;;5093244;28;20434;-72
2023/03/14 05:21:32;;;;;;;7.03;3.72;;;22.20;49.20;;;;;;5092105;28;20032;-73
2023/03/14 05:24:17;;;;;;;6.93;3.30;;;22.20;48.30;;;;;;5093167;28;20036;-72
2023/03/14 05:27:09;;;;;;;6.85;4.07;;;22.20;50.20;;;;;;5070100;28;20044;-72
2023/03/14 05:30:05;;;;;;;3.58;2.25;;;22.10;48.00;;;;;;5010398;28;20042;-74
2023/03/14 05:32:41;;;;;;;5.88;3.97;;;22.10;50.10;;;;;;4994354;28;20083;-72
2023/03/14 05:35:31;;;;;;;4.00;2.88;;;22.20;49.60;;;;;;4932701;29;20122;-71
2023/03/14 05:38:26;;;;;;;6.82;3.65;;;22.00;48.90;;;;;;4914107;29;20171;-71
2023/03/14 05:41:15;;;;;;;4.00;3.10;;;22.10;51.10;;;;;;4914001;29;20094;-71
2023/03/14 05:44:00;;;;;;;8.57;3.80;;;22.00;51.00;;;;;;4898155;29;20133;-73
2023/03/14 05:46:55;;;;;;;3.75;3.08;;;22.10;52.00;;;;;;4838886;29;20045;-71
2023/03/14 05:49:50;;;;;;;6.30;3.60;;;22.10;47.50;;;;;;4838786;29;20065;-72
2023/03/14 05:52:39;;;;;;;3.97;3.13;;;22.10;45.80;;;;;;4839278;29;20144;-71
2023/03/14 05:55:08;;;;;;;6.03;3.50;;;22.00;42.60;;;;;;4839007;29;20077;-72
2023/03/14 05:57:54;;;;;;;3.67;2.72;;;22.20;43.20;;;;;;4839272;29;20133;-72
2023/03/14 06:00:39;;;;;;;6.57;3.95;;;22.00;41.80;;;;;;4839139;29;20078;-72
2023/03/14 06:03:35;;;;;;;9.27;3.78;;;22.00;41.40;;;;;;4823927;29;20095;-73
2023/03/14 06:06:01;;;;;;;4.75;3.50;;;22.00;44.60;;;;;;4861204;29;20133;-72
2023/03/14 06:08:28;;;;;;;5.50;3.33;;;22.30;45.20;;;;;;4913701;29;20056;-73
2023/03/14 06:10:54;;;;;;;4.93;3.70;;;22.20;45.40;;;;;;4897508;29;20467;-71
2023/03/14 06:13:26;;;;;;;6.38;4.18;;;22.30;42.70;;;;;;4916512;29;20050;-72
2023/03/14 06:15:52;;;;;;;6.72;5.53;;;22.30;50.20;;;;;;4970319;28;20042;-71
2023/03/14 06:18:18;;;;;;;8.75;6.72;;;22.10;42.20;;;;;;4983182;28;20041;-72
2023/03/14 06:20:44;;;;;;;9.10;5.75;;;22.20;43.20;;;;;;5012996;28;20155;-70
2023/03/14 06:23:17;;;;;;;6.70;4.30;;;22.10;43.00;;;;;;5048313;28;20048;-73
2023/03/14 06:25:43;;;;;;;4.55;3.47;;;22.00;42.50;;;;;;5090443;28;20054;-74
2023/03/14 06:28:09;;;;;;;3.83;3.33;;;22.00;41.40;;;;;;5090600;28;20059;-73
2023/03/14 06:30:36;;;;;;;5.07;3.05;;;22.10;42.10;;;;;;5090673;28;20039;-72
2023/03/14 06:33:02;;;;;;;4.57;3.65;;;22.00;39.50;;;;;;5090806;28;20040;-70
2023/03/14 06:35:29;;;;;;;5.70;3.70;;;22.00;41.40;;;;;;5090440;28;20103;-72
2023/03/14 06:37:55;;;;;;;8.77;2.67;;;22.00;43.60;;;;;;5073470;28;20027;-73
2023/03/14 06:40:22;;;;;;;13.00;4.43;;;22.00;49.10;;;;;;5084105;28;20107;-73
2023/03/14 06:43:03;;;;;;;7.03;4.32;;;22.20;50.40;;;;;;5070186;28;20141;-73
2023/03/14 06:45:31;;;;;;;5.28;3.35;;;22.10;47.70;;;;;;5070038;28;20476;-73
2023/03/14 06:47:59;;;;;;;5.15;2.63;;;22.10;52.00;;;;;;5070322;28;20040;-75
2023/03/14 06:50:34;;;;;;;3.90;3.00;;;22.10;54.50;;;;;;5070034;28;20112;-74
2023/03/14 06:53:00;;;;;;;2.78;2.38;;;22.10;54.00;;;;;;5070185;28;20610;-73
2023/03/14 06:55:27;;;;;;;4.30;2.83;;;22.20;51.60;;;;;;5069959;28;20031;-74
2023/03/14 06:57:53;;;;;;;6.22;3.15;;;22.20;56.30;;;;;;5048515;28;20941;-75
2023/03/14 07:00:20;;;;;;;3.22;1.60;;;22.30;53.20;;;;;;5031854;28;20072;-76
2023/03/14 07:02:46;;;;;;;2.00;1.45;;;22.10;53.70;;;;;;5042133;28;20075;-73
2023/03/14 07:05:29;;;;;;;3.03;1.73;;;22.20;54.00;;;;;;5035385;28;20058;-74
2023/03/14 07:07:55;;;;;;;2.92;2.20;;;22.30;53.00;;;;;;5051735;28;20123;-74
2023/03/14 07:10:22;;;;;;;8.35;3.15;;;22.30;49.70;;;;;;5051488;28;20250;-72
2023/03/14 07:12:52;;;;;;;12.32;5.05;;;22.30;47.10;;;;;;5051873;28;20471;-72
2023/03/14 07:15:19;;;;;;;2.67;2.42;;;22.30;45.50;;;;;;5051992;28;20040;-72
2023/03/14 07:17:50;;;;;;;6.25;3.13;;;22.20;47.20;;;;;;5051543;28;20058;-73
2023/03/14 07:20:17;;;;;;;4.03;1.92;;;22.20;46.40;;;;;;5052022;28;20220;-74
2023/03/14 07:22:46;;;;;;;10.15;3.17;;;22.10;49.90;;;;;;5049815;28;20516;-75
2023/03/14 07:25:12;;;;;;;3.42;1.55;;;22.30;51.40;;;;;;5051627;28;20158;-76
2023/03/14 07:27:38;;;;;;;5.18;2.85;;;22.20;48.90;;;;;;5051776;28;20032;-75
2023/03/14 07:30:05;;;;;;;7.00;3.22;;;22.20;52.30;;;;;;5083228;28;20484;-74
2023/03/14 07:32:31;;;;;;;3.53;2.50;;;22.30;46.70;;;;;;5070914;28;20075;-76
2023/03/14 07:34:57;;;;;;;6.40;3.00;;;22.10;49.40;;;;;;5048113;28;20052;-75
2023/03/14 07:37:24;;;;;;;5.22;2.92;;;22.10;52.30;;;;;;5048084;28;20180;-76
2023/03/14 07:39:50;;;;;;;4.60;3.50;;;22.10;49.80;;;;;;5064038;28;20094;-75
2023/03/14 07:42:20;;;;;;;10.50;2.92;;;22.10;49.10;;;;;;5051561;28;20036;-77
2023/03/14 07:44:55;;;;;;;7.28;4.07;;;22.00;50.20;;;;;;5051563;28;20125;-78
2023/03/14 07:47:21;;;;;;;11.55;8.18;;;21.90;50.30;;;;;;5068332;28;20466;-77
2023/03/14 07:49:47;;;;;;;14.52;6.55;;;22.00;56.10;;;;;;5068161;28;20194;-81
2023/03/14 07:52:13;;;;;;;12.40;7.57;;;22.00;53.40;;;;;;5068186;28;20098;-76
2023/03/14 07:54:39;;;;;;;27.42;9.35;;;22.00;55.80;;;;;;5068347;28;20540;-77
2023/03/14 07:57:05;;;;;;;29.73;12.88;;;21.90;56.10;;;;;;5051341;28;20036;-77
2023/03/14 07:59:31;;;;;;;22.58;10.80;;;22.10;63.10;;;;;;5054567;28;20041;-79
2023/03/14 08:01:57;;;;;;;9.52;6.90;;;22.20;63.90;;;;;;5047943;28;20044;-77
2023/03/14 08:04:23;;;;;;;11.45;5.85;;;22.10;56.20;;;;;;5047935;28;20542;-77
2023/03/14 08:06:49;;;;;;;11.60;5.85;;;22.10;57.70;;;;;;5067169;28;20056;-78
2023/03/14 08:09:15;;;;;;;9.48;5.15;;;22.10;58.50;;;;;;5070389;28;20032;-81
2023/03/14 08:11:41;;;;;;;7.63;4.25;;;22.30;49.90;;;;;;5052198;28;20717;-79
2023/03/14 08:14:07;;;;;;;5.45;2.60;;;22.40;48.20;;;;;;5034141;28;20032;-77
2023/03/14 08:16:33;;;;;;;6.32;3.03;;;22.40;44.70;;;;;;5054390;28;20100;-78
2023/03/14 08:18:59;;;;;;;6.30;2.97;;;22.50;40.80;;;;;;5054195;28;20121;-79
2023/03/14 08:21:25;;;;;;;8.30;5.28;;;22.60;43.50;;;;;;5054272;28;20029;-81
2023/03/14 08:23:51;;;;;;;3.67;2.90;;;22.60;62.80;;;;;;5054355;28;20040;-79
2023/03/14 08:26:17;;;;;;;4.43;2.47;;;22.80;67.70;;;;;;5054286;28;20070;-79
2023/03/14 08:28:43;;;;;;;2.97;1.75;;;22.70;66.30;;;;;;5054122;28;20064;-80
2023/03/14 08:31:09;;;;;;;12.50;2.80;;;22.90;66.70;;;;;;5054057;28;20045;-81
2023/03/14 08:33:38;;;;;;;5.65;2.38;;;22.80;56.80;;;;;;5038658;28;20136;-78
2023/03/14 08:36:05;;;;;;;7.20;2.50;;;22.90;61.90;;;;;;5036042;28;20052;-76
2023/03/14 08:38:31;;;;;;;7.80;2.95;;;22.70;55.10;;;;;;5018621;28;20037;-78
2023/03/14 08:40:59;;;;;;;4.75;2.97;;;22.60;60.80;;;;;;5053661;28;20109;-76
2023/03/14 08:43:26;;;;;;;5.80;2.17;;;22.60;53.70;;;;;;5053896;28;20060;-73
2023/03/14 08:45:53;;;;;;;3.60;2.40;;;22.60;59.10;;;;;;5053799;28;20048;-75
2023/03/14 08:48:19;;;;;;;5.28;2.50;;;22.70;56.80;;;;;;5053624;28;20528;-77
2023/03/14 08:50:46;;;;;;;3.58;1.50;;;22.50;58.40;;;;;;5053796;28;20119;-76
2023/03/14 08:53:12;;;;;;;1.48;1.33;;;22.60;60.00;;;;;;5053707;28;20098;-76
2023/03/14 08:55:38;;;;;;;1.25;1.15;;;22.60;60.50;;;;;;5053370;28;20544;-75
2023/03/14 08:58:04;;;;;;;4.45;1.83;;;22.60;60.70;;;;;;5053086;28;20056;-76
2023/03/14 09:00:30;;;;;;;7.38;1.90;;;22.60;58.30;;;;;;5053092;28;20064;-74
2023/03/14 09:02:56;;;;;;;2.42;1.60;;;22.60;56.90;;;;;;5054790;28;20439;-79
2023/03/14 09:05:22;;;;;;;2.47;1.92;;;22.50;55.40;;;;;;5073284;28;20037;-76
2023/03/14 09:07:47;;;;;;;4.72;1.95;;;22.50;52.80;;;;;;5073417;28;20408;-76
2023/03/14 09:10:13;;;;;;;2.13;1.85;;;22.40;54.10;;;;;;5073035;28;20052;-78
2023/03/14 09:12:39;;;;;;;4.43;2.58;;;22.40;57.90;;;;;;5073419;28;20045;-78
2023/03/14 09:15:06;;;;;;;6.25;2.05;;;22.50;56.50;;;;;;5073157;28;20036;-79
2023/03/14 09:17:32;;;;;;;4.53;1.95;;;22.40;58.00;;;;;;5054781;28;20107;-76
2023/03/14 09:19:58;;;;;;;1.83;1.25;;;22.50;56.50;;;;;;5037161;28;20173;-77
2023/03/14 09:22:25;;;;;;;3.40;1.77;;;22.50;58.10;;;;;;5037112;28;20044;-77
2023/03/14 09:24:51;;;;;;;5.80;2.08;;;22.70;53.90;;;;;;5072542;28;20032;-75
2023/03/14 09:27:17;;;;;;;6.93;1.90;;;22.80;51.20;;;;;;5020550;28;20051;-76
2023/03/14 09:29:43;;;;;;;2.80;1.42;;;22.50;51.70;;;;;;5057347;28;20029;-76
2023/03/14 09:32:09;;;;;;;5.15;1.75;;;22.60;55.40;;;;;;5052570;28;20049;-79
2023/03/14 09:34:34;;;;;;;2.88;1.63;;;22.70;61.50;;;;;;5034980;28;20458;-76
2023/03/14 09:37:01;;;;;;;11.68;3.17;;;23.00;63.40;;;;;;5052660;28;20068;-73
2023/03/14 09:39:27;;;;;;;14.25;2.90;;;23.10;53.70;;;;;;5052757;28;20064;-74
2023/03/14 09:41:57;;;;;;;3.72;1.60;;;23.30;55.00;;;;;;5052559;28;20116;-74
2023/03/14 09:44:30;;;;;;;1.67;1.40;;;23.60;55.60;;;;;;5017147;28;20511;-77
2023/03/14 09:47:01;;;;;;;4.20;1.50;;;23.50;54.90;;;;;;5052527;28;20029;-76
2023/03/14 09:49:31;;;;;;;1.40;1.30;;;23.40;56.40;;;;;;5052370;28;20123;-77
2023/03/14 09:52:01;;;;;;;1.65;1.13;;;23.50;52.70;;;;;;5063568;28;20025;-77
2023/03/14 09:54:42;;;;;;;3.05;1.55;;;23.70;52.90;;;;;;5072078;28;20040;-77
2023/03/14 09:57:18;;;;;;;5.72;2.83;;;23.90;48.50;;;;;;5071981;28;20032;-76
2023/03/14 09:59:46;;;;;;;7.00;1.95;;;24.10;53.60;;;;;;5071921;28;20036;-76
2023/03/14 10:02:20;;;;;;;3.00;1.52;;;24.10;54.70;;;;;;5072145;28;20024;-76
2023/03/14 10:04:49;;;;;;;1.52;1.08;;;24.10;47.80;;;;;;5072004;28;20044;-75
2023/03/14 10:07:19;;;;;;;1.92;1.40;;;24.10;53.10;;;;;;5072419;28;20036;-75
2023/03/14 10:09:50;;;;;;;9.57;2.22;;;24.10;50.20;;;;;;5072034;28;20047;-75
2023/03/14 10:12:17;;;;;;;4.45;0.93;;;24.00;50.70;;;;;;5071565;28;20472;-74
2023/03/14 10:14:50;;;;;;;3.10;1.63;;;24.00;54.60;;;;;;5071785;28;20051;-74
2023/03/14 10:17:17;;;;;;;1.30;1.17;;;24.00;49.40;;;;;;5071999;28;20395;-76
2023/03/14 10:19:58;;;;;;;1.25;1.25;;;23.90;54.40;;;;;;5071562;28;20036;-78
2023/03/14 10:22:31;;;;;;;2.45;1.13;;;24.00;55.30;;;;;;5071735;28;20085;-79
2023/03/14 10:25:01;;;;;;;6.47;1.67;;;24.10;54.70;;;;;;5071742;28;20488;-81
2023/03/14 10:27:35;;;;;;;6.97;1.73;;;24.00;51.70;;;;;;5071602;28;20043;-81
2023/03/14 10:30:06;;;;;;;1.75;1.63;;;24.10;52.50;;;;;;5064054;28;20028;-79
2023/03/14 10:32:46;;;;;;;4.85;1.83;;;24.10;46.80;;;;;;5051607;28;20403;-82
2023/03/14 10:35:15;;;;;;;6.60;1.65;;;24.20;42.90;;;;;;5051563;28;20033;-78
2023/03/14 10:37:58;;;;;;;4.55;2.05;;;24.30;43.10;;;;;;5050966;28;20056;-79
2023/03/14 10:40:49;;;;;;;2.00;1.08;;;24.50;47.90;;;;;;5063057;28;20380;-78
2023/03/14 10:43:21;;;;;;;7.63;1.83;;;24.60;54.50;;;;;;4970601;28;20145;-76
2023/03/14 10:45:58;;;;;;;2.97;1.53;;;25.20;55.00;;;;;;4954631;28;20046;-78
2023/03/14 10:48:31;;;;;;;1.55;1.38;;;25.40;50.30;;;;;;4970163;28;20050;-78
2023/03/14 10:51:01;;;;;;;2.65;1.52;;;25.30;44.60;;;;;;4954070;28;20101;-81
2023/03/14 10:53:40;;;;;;;4.60;1.48;;;25.30;49.30;;;;;;4970140;28;20051;-79
2023/03/14 10:56:07;;;;;;;3.97;1.88;;;25.00;48.50;;;;;;4970590;28;20035;-78
2023/03/14 10:58:45;;;;;;;11.23;2.75;;;25.00;45.60;;;;;;4969805;28;20080;-79
2023/03/14 11:01:34;;;;;;;1.95;1.30;;;25.20;51.10;;;;;;4970343;28;20050;-78
2023/03/14 11:04:26;;;;;;;1.60;1.48;;;25.30;42.60;;;;;;4942173;29;20035;-77
2023/03/14 11:07:06;;;;;;;1.67;1.30;;;25.30;38.40;;;;;;4931650;29;20050;-79
2023/03/14 11:09:41;;;;;;;4.43;1.20;;;25.10;31.60;;;;;;4916062;28;20518;-79
2023/03/14 11:12:27;;;;;;;2.15;1.48;;;25.00;45.10;;;;;;4969910;28;20058;-78
2023/03/14 11:15:05;;;;;;;4.43;1.20;;;24.90;49.80;;;;;;4969978;28;20050;-80
2023/03/14 11:17:45;;;;;;;1.10;0.82;;;25.00;48.40;;;;;;4969846;28;20039;-79
2023/03/14 11:20:11;;;;;;;1.33;0.82;;;24.90;45.00;;;;;;4988129;28;20046;-78
2023/03/14 11:22:51;;;;;;;1.35;1.25;;;24.70;45.30;;;;;;5009086;28;20153;-79
2023/03/14 11:25:49;;;;;;;1.45;0.80;;;24.60;47.80;;;;;;5009000;28;20557;-79
2023/03/14 11:28:29;;;;;;;2.15;1.33;;;24.60;50.60;;;;;;4989011;28;20049;-79
2023/03/14 11:31:05;;;;;;;1.55;0.93;;;24.50;45.40;;;;;;5003719;28;20046;-78
2023/03/14 11:33:38;;;;;;;1.40;0.77;;;24.50;46.70;;;;;;5008737;28;20045;-80
2023/03/14 11:36:13;;;;;;;4.30;1.05;;;24.20;52.00;;;;;;5008371;28;20037;-79
2023/03/14 11:38:58;;;;;;;3.05;0.90;;;24.40;47.90;;;;;;5008782;28;20045;-77
2023/03/14 11:41:27;;;;;;;1.60;0.82;;;24.30;43.00;;;;;;4992119;28;20053;-76
2023/03/14 11:43:56;;;;;;;2.58;0.65;;;24.30;48.60;;;;;;5008842;28;20049;-79
2023/03/14 11:46:22;;;;;;;4.15;1.33;;;24.40;52.00;;;;;;5008700;28;20069;-77
2023/03/14 11:49:13;;;;;;;2.47;1.23;;;24.60;54.30;;;;;;5011354;28;20478;-76
2023/03/14 11:51:45;;;;;;;1.60;0.80;;;24.70;59.00;;;;;;5012471;28;20052;-77
2023/03/14 11:54:39;;;;;;;2.85;0.95;;;24.80;63.80;;;;;;5012481;28;20041;-77
2023/03/14 11:57:12;;;;;;;1.60;0.85;;;25.10;64.80;;;;;;5012610;28;20188;-78
2023/03/14 11:59:45;;;;;;;;;;;25.30;64.00;;;;;;4996288;28;20058;-77
2023/03/14 12:02:29;;;;;;;5.28;1.38;;;25.30;55.00;;;;;;5012531;28;19971;-75
2023/03/14 12:05:14;;;;;;;1.10;0.80;;;25.00;47.60;;;;;;5037181;28;20052;-78
2023/03/14 12:08:08;;;;;;;2.45;0.60;;;24.80;50.00;;;;;;5073055;28;20518;-80
2023/03/14 12:10:56;;;;;;;3.45;0.70;;;24.70;50.80;;;;;;5065480;28;20061;-77
2023/03/14 12:13:27;;;;;;;1.30;0.55;;;24.70;53.00;;;;;;5054540;28;20040;-75
2023/03/14 12:16:03;;;;;;;3.40;0.80;;;24.70;54.50;;;;;;5054323;28;20122;-75
2023/03/14 12:18:38;;;;;;;6.10;0.80;;;24.50;53.80;;;;;;5018637;28;20040;-76
2023/03/14 12:21:07;;;;;;;0.70;0.70;;;24.40;48.70;;;;;;5054401;28;20116;-75
2023/03/14 12:23:44;;;;;;;2.40;1.25;;;24.40;52.80;;;;;;5036429;28;20154;-75
2023/03/14 12:26:18;;;;;;;2.67;0.85;;;24.30;53.70;;;;;;5054076;28;20090;-78
2023/03/14 12:29:08;;;;;;;1.25;0.93;;;24.30;52.80;;;;;;5054108;28;20044;-79
2023/03/14 12:31:42;;;;;;;1.60;0.93;;;24.30;50.90;;;;;;5053175;28;20037;-74
2023/03/14 12:34:11;;;;;;;6.40;1.40;;;24.30;57.80;;;;;;5054161;28;20520;-73
2023/03/14 12:36:48;;;;;;;5.80;0.70;;;24.40;50.30;;;;;;5037438;28;20533;-75
2023/03/14 12:39:27;;;;;;;0.50;0.50;;;24.30;54.00;;;;;;5053638;28;20037;-78
2023/03/14 12:42:04;;;;;;;3.10;1.05;;;24.30;56.80;;;;;;5053880;28;20037;-75
2023/03/14 12:44:30;;;;;;;2.33;0.60;;;24.30;49.50;;;;;;5053637;28;20558;-75
2023/03/14 12:47:00;;;;;;;1.92;0.70;;;24.20;53.40;;;;;;5053484;28;20036;-79
2023/03/14 12:49:31;;;;;;;0.63;0.50;;;24.30;56.20;;;;;;5053466;28;20074;-80
2023/03/14 12:52:02;;;;;;;1.48;0.50;;;24.30;52.60;;;;;;5053444;28;20033;-80
2023/03/14 12:54:40;;;;;;;0.28;0.28;;;24.30;55.60;;;;;;5053742;28;20044;-81
2023/03/14 12:57:19;;;;;;;0.77;0.47;;;24.30;56.10;;;;;;5053760;28;20086;-81
2023/03/14 12:59:57;;;;;;;4.18;1.00;;;24.40;55.00;;;;;;5034784;28;20033;-80
2023/03/14 13:02:42;;;;;;;0.82;0.73;;;24.50;49.10;;;;;;5053451;28;20441;-82
2023/03/14 13:05:24;;;;;;;1.20;0.77;;;24.40;53.70;;;;;;5035612;28;20071;-79
2023/03/14 13:07:50;;;;;;;4.40;0.55;;;24.30;53.70;;;;;;5053292;28;20033;-79
2023/03/14 13:10:25;;;;;;;1.20;1.05;;;24.40;55.60;;;;;;5055700;28;20110;-79